Latest Weather Observations for Luncheon Hill

IDT60801

Issued at 9:31 am EST Wednesday 5 August 2015 (issued every 30 minutes, with the page automatically refreshed every 10 minutes)

About weather observations | Map of weather stations | Latest weather observations for TAS | Other Formats
Station Details ID: 091259 Name: LUNCHEON HILL (FORESTRY) Lat: -41.15 Lon: 145.15 Height: 344.0 m
Data from the previous 72 hours. | See also: Recent months at Luncheon Hill
Date/Time
EST
Temp
°C
App
Temp
°C
Dew
Point
Rel
Hum
%
Delta-T
°C
Wind Press
QNH
hPa
Press
MSL
hPa
Rain
since 9 am
mm
Dir
 
Spd
km/h
Gust
km/h
Spd
kts
Gust
kts
05/09:30am 3.3 -2.6 1.5 88 0.7 SW 22 35 12 19 - - 0.0
05/09:00am 2.4 -3.6 1.1 91 0.5 SSW 22 41 12 22 - - 22.6
05/08:30am 1.3 -3.8 0.6 95 0.3 SW 17 24 9 13 - - 22.2
05/08:00am 0.8 -4.3 0.5 98 0.1 SSW 17 26 9 14 - - 22.2
05/07:30am 0.3 -4.5 0.2 99 0.0 SW 15 26 8 14 - - 22.2
05/07:00am 0.3 -5.8 0.2 99 0.0 SSW 22 33 12 18 - - 22.2
05/06:30am 0.4 -5.3 0.3 99 0.0 SSW 20 33 11 18 - - 22.2
05/06:00am 0.3 -4.9 0.2 99 0.0 SSW 17 22 9 12 - - 22.2
05/05:30am 0.4 -6.1 0.3 99 0.0 SSW 24 37 13 20 - - 22.2
05/05:00am 1.0 -7.0 0.7 98 0.1 SSW 32 52 17 28 - - 22.2
05/04:51am 0.9 -6.3 0.5 97 0.2 SSW 28 50 15 27 - - 22.2
05/04:30am 1.0 -5.4 0.9 99 0.0 SSW 24 33 13 18 - - 22.2
05/04:00am 1.2 -6.9 0.9 98 0.1 SSW 33 54 18 29 - - 22.0
05/03:31am 1.4 -6.5 1.1 98 0.1 SSW 32 50 17 27 - - 22.0
05/03:30am 1.3 -6.6 1.0 98 0.1 SSW 32 46 17 25 - - 22.0
05/03:00am 1.7 -7.1 1.6 99 0.0 SSW 37 57 20 31 - - 22.0
05/02:53am 1.9 -5.5 1.8 99 0.0 SSW 30 50 16 27 - - 22.0
05/02:30am 2.2 -5.2 2.1 99 0.0 SSW 30 43 16 23 - - 21.8
05/02:12am 2.2 -5.2 2.1 99 0.0 SSW 30 48 16 26 - - 21.8
05/02:00am 2.2 -5.5 2.1 99 0.0 SSW 32 48 17 26 - - 21.8
05/01:33am 2.7 -4.9 2.6 99 0.0 SW 32 50 17 27 - - 21.2
05/01:30am 2.7 -5.1 2.6 99 0.0 SW 33 48 18 26 - - 21.2
05/01:05am 3.4 -3.7 3.3 99 0.0 SSW 30 48 16 26 - - 20.6
05/01:00am 3.4 -3.0 3.3 99 0.0 SW 26 43 14 23 - - 20.6
05/12:30am 3.2 -4.6 3.1 99 0.0 SSW 33 52 18 28 - - 20.4
05/12:00am 3.8 -3.7 3.7 99 0.0 SW 32 63 17 34 - - 20.4
 
Date/Time
EST
Temp
°C
App
Temp
°C
Dew
Point
Rel
Hum
%
Delta-T
°C
Wind Press
QNH
hPa
Press
MSL
hPa
Rain
since 9 am
mm
Dir
 
Spd
km/h
Gust
km/h
Spd
kts
Gust
kts
04/11:40pm 4.3 -2.3 4.2 99 0.0 SW 28 48 15 26 - - 20.2
04/11:30pm 4.3 -1.9 4.2 99 0.0 SW 26 46 14 25 - - 20.2
04/11:14pm 4.7 -1.8 4.6 99 0.0 SW 28 65 15 35 - - 20.0
04/11:00pm 4.7 -0.7 4.6 99 0.0 SW 22 39 12 21 - - 19.8
04/10:48pm 4.6 -1.9 4.5 99 0.0 WSW 28 50 15 27 - - 19.8
04/10:30pm 4.5 -1.3 4.4 99 0.0 WSW 24 46 13 25 - - 19.2
04/10:00pm 3.9 -3.5 3.8 99 0.0 SW 32 61 17 33 - - 19.0
04/09:44pm 4.9 -1.6 4.8 99 0.0 W 28 59 15 32 - - 18.0
04/09:30pm 5.3 0.0 5.2 99 0.0 W 22 41 12 22 - - 16.2
04/09:00pm 5.1 -1.0 5.0 99 0.0 W 26 44 14 24 - - 15.8
04/08:49pm 5.1 -2.1 5.0 99 0.0 WSW 32 61 17 33 - - 15.8
04/08:38pm 5.5 -1.8 5.4 99 0.0 WSW 33 70 18 38 - - 15.4
04/08:30pm 6.1 -1.8 6.0 99 0.0 W 37 74 20 40 - - 15.0
04/08:26pm 6.4 -0.5 6.3 99 0.0 W 32 74 17 40 - - 15.0
04/08:00pm 6.6 -0.3 6.5 99 0.0 WNW 32 54 17 29 - - 14.4
04/07:34pm 6.5 0.4 6.4 99 0.0 W 28 57 15 31 - - 14.4
04/07:30pm 6.4 1.0 6.3 99 0.0 W 24 43 13 23 - - 14.4
04/07:12pm 6.2 -0.4 6.1 99 0.0 W 30 52 16 28 - - 13.0
04/07:00pm 6.2 0.4 6.1 99 0.0 W 26 52 14 28 - - 11.8
04/06:55pm 6.4 0.6 6.3 99 0.0 W 26 54 14 29 - - 10.4
04/06:42pm 6.5 -1.4 6.4 99 0.0 WNW 37 56 20 30 - - 8.2
04/06:30pm 6.5 -1.7 6.4 99 0.0 WNW 39 52 21 28 - - 6.8
04/06:20pm 6.4 -1.1 6.3 99 0.0 WNW 35 57 19 31 - - 6.4
04/06:00pm 6.2 -0.8 6.1 99 0.0 WNW 32 44 17 24 - - 6.4
04/05:30pm 5.7 -1.6 5.6 99 0.0 W 33 59 18 32 - - 6.0
04/05:07pm 5.8 -1.4 5.7 99 0.0 W 33 61 18 33 - - 4.4
04/05:00pm 6.2 -1.0 6.1 99 0.0 WNW 33 48 18 26 - - 3.2
04/04:30pm 6.5 -0.6 6.4 99 0.0 WNW 33 61 18 33 - - 2.6
04/04:09pm 6.4 -0.1 6.3 99 0.0 WNW 30 48 16 26 - - 2.6
04/04:00pm 6.4 0.2 6.3 99 0.0 WNW 28 41 15 22 - - 2.4
04/03:30pm 6.9 0.2 5.7 92 0.5 WNW 30 48 16 26 - - 2.0
04/03:00pm 7.4 -0.5 6.2 92 0.6 WNW 37 54 20 29 - - 2.0
04/02:30pm 7.1 0.6 6.5 96 0.3 WNW 30 48 16 26 - - 2.0
04/02:10pm 7.6 1.7 7.5 99 0.0 WNW 28 46 15 25 - - 2.0
04/02:00pm 8.0 2.2 7.9 99 0.0 WNW 28 44 15 24 - - 2.0
04/01:41pm 6.9 -0.1 6.8 99 0.0 WNW 33 54 18 29 - - 1.6
04/01:30pm 7.1 1.1 7.0 99 0.0 WNW 28 43 15 23 - - 1.6
04/01:00pm 7.6 2.1 7.5 99 0.0 WNW 26 41 14 22 - - 1.6
04/12:34pm 6.1 -0.1 6.0 99 0.0 W 28 46 15 25 - - 1.6
04/12:30pm 6.1 -0.1 6.0 99 0.0 W 28 43 15 23 - - 1.6
04/12:00pm 6.1 -0.5 6.0 99 0.0 WNW 30 46 16 25 - - 1.0
04/11:30am 6.3 0.5 6.2 99 0.0 WNW 26 39 14 21 - - 0.6
04/11:00am 6.0 1.3 5.9 99 0.0 NW 20 26 11 14 - - 0.0
04/10:30am 6.5 2.4 6.4 99 0.0 WNW 17 22 9 12 - - 0.0
04/10:00am 5.3 1.4 5.2 99 0.0 WNW 15 22 8 12 - - 0.0
04/09:30am 4.6 -0.2 4.5 99 0.0 WNW 19 24 10 13 - - 0.0
04/09:00am 3.7 -0.2 3.6 99 0.0 WNW 13 20 7 11 - - 12.4
04/08:30am 3.2 -1.5 3.1 99 0.0 W 17 24 9 13 - - 12.2
04/08:00am 2.9 -1.9 2.8 99 0.0 W 17 24 9 13 - - 11.8
04/07:30am 2.8 -2.6 2.7 99 0.0 W 20 28 11 15 - - 11.8
04/07:00am 2.3 -2.9 2.2 99 0.0 W 19 26 10 14 - - 11.6
04/06:30am 2.1 -3.4 2.0 99 0.0 WNW 20 24 11 13 - - 11.6
04/06:00am 2.4 -2.8 2.3 99 0.0 W 19 33 10 18 - - 11.4
04/05:30am 1.9 -2.7 1.8 99 0.0 W 15 20 8 11 - - 11.2
04/05:00am 2.2 -2.7 2.1 99 0.0 W 17 28 9 15 - - 11.2
04/04:30am 1.9 -3.4 1.6 98 0.1 W 19 28 10 15 - - 11.0
04/04:00am 1.7 -3.4 0.7 93 0.4 W 17 24 9 13 - - 11.0
04/03:30am 1.8 -2.9 0.6 92 0.5 W 15 22 8 12 - - 11.0
04/03:00am 1.8 -3.0 0.0 88 0.7 WSW 15 20 8 11 - - 11.0
04/02:30am 1.7 -2.8 -0.1 88 0.7 WSW 13 20 7 11 - - 11.0
04/02:00am 2.0 -2.9 -0.4 84 0.9 W 15 26 8 14 - - 10.8
04/01:30am 2.1 -2.7 0.2 87 0.7 SW 15 20 8 11 - - 10.8
04/01:00am 1.9 -2.9 0.4 90 0.6 WSW 15 20 8 11 - - 10.8
04/12:30am 1.6 -3.1 1.0 96 0.2 SSW 15 20 8 11 - - 10.8
04/12:00am 1.7 -2.3 0.8 94 0.3 SW 11 17 6 9 - - 10.8
 
Date/Time
EST
Temp
°C
App
Temp
°C
Dew
Point
Rel
Hum
%
Delta-T
°C
Wind Press
QNH
hPa
Press
MSL
hPa
Rain
since 9 am
mm
Dir
 
Spd
km/h
Gust
km/h
Spd
kts
Gust
kts
03/11:30pm 1.7 -2.6 1.3 97 0.2 WSW 13 20 7 11 - - 10.8
03/11:00pm 1.6 -2.6 1.5 99 0.0 WSW 13 17 7 9 - - 10.8
03/10:30pm 1.4 -2.5 1.3 99 0.0 W 11 17 6 9 - - 10.8
03/10:00pm 1.5 -2.7 1.4 99 0.0 WSW 13 19 7 10 - - 10.8
03/09:30pm 1.1 -3.2 0.7 97 0.2 SW 13 19 7 10 - - 10.8
03/09:00pm 1.6 -2.7 0.9 95 0.3 SW 13 19 7 10 - - 10.8
03/08:30pm 1.0 -3.7 0.6 97 0.2 SSW 15 17 8 9 - - 10.8
03/08:00pm 1.5 -3.6 0.8 95 0.3 SW 17 20 9 11 - - 10.6
03/07:30pm 1.2 -4.5 0.6 96 0.2 SSW 20 26 11 14 - - 10.6
03/07:00pm 1.9 -3.7 0.1 88 0.7 SW 19 26 10 14 - - 10.6
03/06:30pm 1.9 -3.6 0.4 90 0.6 SW 19 26 10 14 - - 10.6
03/06:00pm 1.9 -4.2 0.7 92 0.5 SSW 22 33 12 18 - - 10.4
03/05:30pm 1.8 -2.5 0.8 93 0.4 SW 13 28 7 15 - - 10.4
03/05:00pm 1.6 -4.8 0.7 94 0.3 SSW 24 39 13 21 - - 10.4
03/04:30pm 2.7 -5.2 1.1 89 0.6 SSW 32 54 17 29 - - 10.4
03/04:21pm 3.7 -3.9 0.7 81 1.2 SSW 30 48 16 26 - - 10.4
03/04:00pm 3.1 -3.7 0.8 85 0.9 SW 26 43 14 23 - - 10.4
03/03:30pm 2.4 -5.7 1.2 92 0.5 SSW 33 56 18 30 - - 10.4
03/03:00pm 4.4 -3.5 0.9 78 1.4 SW 32 50 17 27 - - 10.0
03/02:30pm 3.8 -4.4 -1.2 70 1.9 SSW 32 50 17 27 - - 10.0
03/02:00pm 4.6 -4.9 -0.6 69 2.0 SW 39 63 21 34 - - 10.0
03/01:33pm 4.5 -2.6 1.4 80 1.2 SSW 28 57 15 31 - - 10.0
03/01:30pm 4.4 -1.9 1.8 83 1.1 SSW 24 39 13 21 - - 10.0
03/01:00pm 3.5 -6.5 2.2 91 0.5 SSW 44 76 24 41 - - 9.4
03/12:55pm 2.9 -6.7 1.3 89 0.6 SSW 41 74 22 40 - - 8.8
03/12:54pm 2.7 -6.5 1.1 89 0.6 SW 39 72 21 39 - - 8.8
03/12:33pm 3.4 -4.0 1.9 90 0.6 SSW 30 65 16 35 - - 7.0
03/12:30pm 3.6 -3.3 2.6 93 0.4 SSW 28 44 15 24 - - 6.8
03/12:00pm 1.7 -6.5 0.5 92 0.5 SSW 33 61 18 33 - - 5.0
03/11:33am 2.4 -5.5 0.8 89 0.6 SW 32 50 17 27 - - 4.2
03/11:30am 2.9 -5.1 0.6 85 0.9 SW 32 48 17 26 - - 4.0
03/11:01am 2.2 -6.4 0.4 88 0.7 SSW 35 54 19 29 - - 2.6
03/11:00am 2.4 -6.1 0.6 88 0.7 SSW 35 59 19 32 - - 2.6
03/10:31am 1.5 -7.9 -0.3 88 0.7 SW 39 69 21 37 - - 0.0
03/10:30am 1.6 -7.4 -0.2 88 0.7 SW 37 63 20 34 - - 0.0
03/10:25am 2.1 -5.1 0.5 89 0.6 SW 28 52 15 28 - - 0.0
03/10:00am 1.7 -4.8 0.5 92 0.5 SW 24 48 13 26 - - 0.0
03/09:30am 0.3 -7.4 0.0 98 0.1 SW 30 52 16 28 - - 0.0
03/09:08am 0.1 -7.6 0.0 99 0.0 SW 30 50 16 27 - - 0.0
03/09:00am 0.0 -6.6 -0.1 99 0.0 SW 24 39 13 21 - - 17.6
03/08:30am -0.8 -7.5 -0.9 99 0.0 SW 24 39 13 21 - - 17.6
03/08:17am -0.8 -9.9 -0.9 99 0.0 SSW 37 78 20 42 - - 17.6
03/08:12am -0.7 -11.2 -0.8 99 0.0 SSW 44 83 24 45 - - 17.6
03/08:08am -0.7 -10.6 -0.8 99 0.0 SW 41 83 22 45 - - 17.6
03/08:03am -0.4 -8.2 -0.8 97 0.1 SSW 30 83 16 45 - - 17.6
03/08:00am -0.1 -7.1 -0.7 96 0.2 SSW 26 43 14 23 - - 17.6
03/07:41am 0.0 -6.6 -0.6 96 0.2 SW 24 54 13 29 - - 17.6
03/07:30am 0.3 -5.1 -1.1 90 0.5 SW 17 39 9 21 - - 17.6
03/07:00am -0.1 -7.6 -1.7 89 0.6 SW 28 43 15 23 - - 17.6
03/06:30am 0.5 -7.9 -0.9 90 0.5 SW 33 70 18 38 - - 17.6
03/06:00am 1.0 -7.3 -1.4 84 0.9 SW 32 57 17 31 - - 17.6
03/05:33am 0.7 -6.7 -0.6 91 0.5 WSW 28 54 15 29 - - 17.6
03/05:30am 0.6 -6.8 -0.5 92 0.4 WSW 28 41 15 22 - - 17.6
03/05:10am 0.3 -7.1 -0.8 92 0.4 SW 28 46 15 25 - - 17.6
03/05:00am 0.2 -7.2 -0.8 93 0.4 SW 28 44 15 24 - - 17.6
03/04:30am 0.2 -7.8 0.1 99 0.0 SSW 32 50 17 27 - - 17.6
03/04:05am 0.7 -6.6 0.1 96 0.2 SW 28 65 15 35 - - 17.6
03/04:00am 0.6 -6.3 -0.1 95 0.3 SW 26 41 14 22 - - 17.6
03/03:30am 0.9 -7.1 0.6 98 0.1 SW 32 54 17 29 - - 17.6
03/03:05am 1.1 -6.1 1.0 99 0.0 SW 28 48 15 26 - - 17.6
03/03:00am 1.0 -5.8 0.9 99 0.0 SW 26 41 14 22 - - 17.6
03/02:30am 0.8 -7.3 0.7 99 0.0 WSW 33 85 18 46 - - 17.6
03/02:26am 0.9 -7.2 0.8 99 0.0 WSW 33 85 18 46 - - 17.6
03/02:22am 1.0 -6.2 0.9 99 0.0 WSW 28 85 15 46 - - 17.6
03/02:00am 1.1 -4.5 1.0 99 0.0 WSW 20 37 11 20 - - 17.6
03/01:30am 1.1 -6.8 1.0 99 0.0 SW 32 59 17 32 - - 17.6
03/01:17am 1.2 -5.9 1.1 99 0.0 SW 28 54 15 29 - - 17.2
03/01:00am 1.1 -4.5 1.0 99 0.0 SW 20 35 11 19 - - 17.0
03/12:30am 1.3 -4.1 1.2 99 0.0 WSW 19 32 10 17 - - 16.2
03/12:00am 1.5 -4.1 1.4 99 0.0 SW 20 32 11 17 - - 16.2
 
Date/Time
EST
Temp
°C
App
Temp
°C
Dew
Point
Rel
Hum
%
Delta-T
°C
Wind Press
QNH
hPa
Press
MSL
hPa
Rain
since 9 am
mm
Dir
 
Spd
km/h
Gust
km/h
Spd
kts
Gust
kts
02/11:30pm 2.2 -4.8 2.1 99 0.0 WSW 28 52 15 28 - - 14.8
02/11:19pm 2.4 -4.5 2.3 99 0.0 WSW 28 54 15 29 - - 14.8
02/11:00pm 2.6 -3.9 2.5 99 0.0 WSW 26 46 14 25 - - 14.2
02/10:30pm 2.5 -5.2 2.4 99 0.0 WSW 32 57 17 31 - - 14.0
02/10:00pm 2.3 -4.7 2.2 99 0.0 W 28 48 15 26 - - 12.8
02/09:30pm 2.1 -5.7 2.0 99 0.0 W 32 72 17 39 - - 12.6
02/09:27pm 2.4 -4.5 2.3 99 0.0 WNW 28 59 15 32 - - 12.4
02/09:00pm 2.4 -4.5 2.3 99 0.0 W 28 41 15 22 - - 12.0
02/08:30pm 2.9 -4.3 2.8 99 0.0 W 30 52 16 28 - - 11.0
02/08:00pm 2.5 -4.8 2.4 99 0.0 W 30 67 16 36 - - 11.0
02/07:50pm 2.6 -4.3 2.5 99 0.0 WNW 28 57 15 31 - - 10.6
02/07:49pm 2.6 -3.9 2.5 99 0.0 W 26 48 14 26 - - 10.2
02/07:30pm 2.7 -3.0 2.6 99 0.0 WNW 22 30 12 16 - - 9.8
02/07:00pm 2.4 -3.0 2.3 99 0.0 W 20 35 11 19 - - 9.6
02/06:30pm 2.6 -4.3 2.5 99 0.0 WNW 28 43 15 23 - - 9.0
02/06:00pm 2.9 -4.0 2.5 97 0.2 WNW 28 52 15 28 - - 9.0
02/05:30pm 2.7 -4.2 2.3 97 0.2 WNW 28 43 15 23 - - 8.8
02/05:00pm 3.1 -4.2 2.7 97 0.2 WNW 30 44 16 24 - - 8.8
02/04:37pm 2.8 -4.6 2.1 95 0.3 W 30 61 16 33 - - 8.8
02/04:36pm 2.8 -4.2 2.1 95 0.3 W 28 61 15 33 - - 8.8
02/04:30pm 2.8 -2.6 2.4 97 0.2 W 20 33 11 18 - - 8.8
02/04:00pm 2.3 -5.5 2.0 98 0.1 W 32 70 17 38 - - 8.6
02/03:57pm 2.2 -4.9 1.6 96 0.2 W 28 70 15 38 - - 8.4
02/03:30pm 3.1 -2.3 2.4 95 0.3 W 20 37 11 20 - - 7.8
02/03:00pm 2.9 -4.1 2.0 94 0.4 SW 28 52 15 28 - - 7.8
02/02:35pm 4.7 -1.8 4.6 99 0.0 W 28 48 15 26 - - 7.4
02/02:30pm 4.3 -1.5 4.2 99 0.0 W 24 46 13 25 - - 7.4
02/02:00pm 3.4 -1.8 3.3 99 0.0 SW 20 35 11 19 - - 7.4
02/01:30pm 3.6 -1.6 3.5 99 0.0 SW 20 41 11 22 - - 7.4
02/01:00pm 2.6 -5.3 2.5 99 0.0 SW 33 56 18 30 - - 7.2
02/12:30pm 3.4 -4.1 3.3 99 0.0 SW 32 52 17 28 - - 6.0
02/12:02pm 4.8 -7.2 4.7 99 0.0 WNW 57 89 31 48 - - 4.2
02/12:00pm 5.0 -7.7 4.9 99 0.0 NW 61 89 33 48 - - 4.0
02/11:56am 5.7 -6.1 5.6 99 0.0 NW 57 87 31 47 - - 3.0
02/11:53am 6.3 -4.8 6.2 99 0.0 NW 54 78 29 42 - - 3.0
02/11:52am 6.4 -4.7 6.3 99 0.0 NW 54 78 29 42 - - 3.0
02/11:30am 6.2 -4.6 6.1 99 0.0 NW 52 91 28 49 - - 1.6
02/11:21am 7.0 -1.5 6.9 99 0.0 NNW 41 59 22 32 - - 0.8
02/11:00am 7.5 -1.3 7.4 99 0.0 NW 43 57 23 31 - - 0.8
02/10:30am 6.2 -3.4 6.1 99 0.0 NW 46 65 25 35 - - 0.4
02/10:24am 6.4 -1.9 6.3 99 0.0 NW 39 57 21 31 - - 0.4
02/10:00am 6.4 -0.7 6.3 99 0.0 NW 33 46 18 25 - - 0.2

Other Formats:

Comma delimited format used in spreadsheet applications
http://www.bom.gov.au/fwo/IDT60801/IDT60801.95956.axf

JavaScript Object Notation format (JSON) in row-major order
http://www.bom.gov.au/fwo/IDT60801/IDT60801.95956.json